Flight Track Log - Related Links

Times and Time Zones

All times are in EDT time to prevent confusion due to time zone crossing. See the SWA4079 flight status page for this flight to view local times or setup timezone preferences in your user account.

Time Position Orientation Groundspeed Altitude Reporting Facility
EDT Latitude Longitude Course Direction KTS MPH feet Rate Location/Type
Sat 07:51:11 PM 29.6333 -95.2653 49° Northeast 151 174 900  Level Houston Center
Sat 07:52:18 PM 29.6669 -95.2203 49° Northeast 272 313 2,900 1,793 Climbing Houston Center
Sat 07:52:38 PM 29.6825 -95.2197 North 261 300 3,500 2,066 Climbing Houston Center
Sat 07:53:19 PM 29.7450 -95.2253 356° North 295 339 5,000 1,452 Climbing Houston Center
Sat 07:53:40 PM 29.7636 -95.2253 360° North 282 325 5,000 2,024 Level Houston Center
Sat 07:54:42 PM 29.8411 -95.2631 337° Northwest 305 351 7,800 3,268 Climbing Houston Center
Sat 07:55:43 PM 29.9392 -95.2592 North 307 353 11,700 3,171 Climbing Houston Center
Sat 07:56:45 PM 30.0181 -95.2814 346° North 313 360 14,300 2,516 Climbing Houston Center
Sat 07:57:47 PM 30.0919 -95.3303 330° Northwest 307 353 16,900 1,645 Climbing Houston Center
Sat 07:58:49 PM 30.1767 -95.3808 333° Northwest 341 392 17,700 1,659 Climbing Houston Center
Sat 07:59:50 PM 30.2706 -95.4383 332° Northwest 378 435 20,300 2,146 Climbing Houston Center
Sat 08:00:52 PM 30.3644 -95.4964 332° Northwest 379 436 22,100 1,887 Climbing Houston Center
Sat 08:01:54 PM 30.4603 -95.5553 332° Northwest 388 447 24,200 1,756 Climbing Houston Center
Sat 08:02:55 PM 30.5786 -95.6283 332° Northwest 402 463 25,700 1,463 Climbing Houston Center
Sat 08:03:57 PM 30.6808 -95.6922 332° Northwest 412 474 27,200 1,403 Climbing Houston Center
Sat 08:04:59 PM 30.7853 -95.7561 332° Northwest 419 482 28,600 1,561 Climbing Houston Center
Sat 08:06:00 PM 30.8892 -95.8214 332° Northwest 420 483 30,400 1,707 Climbing Houston Center
Sat 08:07:02 PM 30.9906 -95.8831 332° Northwest 417 480 32,100 1,403 Climbing Houston Center
Sat 08:08:04 PM 31.0881 -95.9450 331° Northwest 405 466 33,300 976 Climbing Houston Center
Sat 08:09:05 PM 31.1958 -95.9972 337° Northwest 414 476 34,100 878 Climbing Houston Center
Sat 08:10:07 PM 31.3119 -96.0400 343° North 431 496 35,100 927 Climbing Houston Center
Sat 08:11:08 PM 31.4478 -96.0939 341° North 432 497 36,000 439 Climbing Houston Center
Sat 08:12:10 PM 31.5617 -96.1392 341° North 431 496 36,000  Level Houston Center
Sat 08:12:55 PM 31.6383 -96.1667 343° North 431 496 36,000  Level Fort Worth Center
Sat 08:13:57 PM 31.7531 -96.2117 342° North 431 496 36,000  Level Fort Worth Center
Sat 08:14:58 PM 31.8669 -96.2578 341° North 432 497 36,000 -49 Level Fort Worth Center
Sat 08:15:59 PM 32.0028 -96.3094 342° North 428 493 35,900  Descending Fort Worth Center
Sat 08:17:01 PM 32.1147 -96.3556 341° North 428 493 36,000 49 Climbing Fort Worth Center
Sat 08:18:02 PM 32.2272 -96.3986 342° North 428 493 36,000  Level Fort Worth Center
Sat 08:19:03 PM 32.3431 -96.4422 342° North 429 494 36,000  Level Fort Worth Center
Sat 08:20:04 PM 32.4419 -96.5089 330° Northwest 416 479 36,000  Level Fort Worth Center
Sat 08:21:06 PM 32.5433 -96.5756 331° Northwest 416 479 36,000  Level Fort Worth Center
Sat 08:22:07 PM 32.6444 -96.6425 331° Northwest 416 479 36,000  Level Fort Worth Center
Sat 08:23:08 PM 32.7542 -96.6922 339° North 431 496 36,000  Level Fort Worth Center
Sat 08:24:09 PM 32.8689 -96.7294 345° North 431 496 36,000 -49 Level Fort Worth Center
Sat 08:25:11 PM 33.0050 -96.7747 344° North 430 495 35,900  Descending Fort Worth Center
Sat 08:26:12 PM 33.1192 -96.8133 344° North 429 494 36,000 49 Climbing Fort Worth Center
Sat 08:27:13 PM 33.2353 -96.8522 344° North 434 499 36,000  Level Fort Worth Center
Sat 08:28:14 PM 33.3522 -96.8928 344° North 437 503 36,000  Level Fort Worth Center
Sat 08:29:16 PM 33.4694 -96.9317 345° North 440 506 36,000 -49 Level Fort Worth Center
Sat 08:30:17 PM 33.5869 -96.9719 344° North 441 507 35,900 -1,328 Descending Fort Worth Center
Sat 08:31:18 PM 33.7056 -97.0128 344° North 442 509 33,300 -2,927 Descending Fort Worth Center
Sat 08:32:20 PM 33.8500 -97.0633 344° North 450 518 29,900 -2,829 Descending Fort Worth Center
Sat 08:33:21 PM 33.9694 -97.1036 344° North 449 517 27,500 -2,341 Descending Fort Worth Center
Sat 08:34:23 PM 34.0856 -97.1458 343° North 439 505 25,100 -2,146 Descending Fort Worth Center
Sat 08:35:24 PM 34.1892 -97.1764 346° North 434 499 23,100 -2,361 Descending Fort Worth Center
Sat 08:36:25 PM 34.3250 -97.2244 344° North 427 491 20,300 -2,537 Descending Fort Worth Center
Sat 08:37:27 PM 34.4333 -97.2653 343° North 412 474 17,900 -2,195 Descending Fort Worth Center
Sat 08:38:28 PM 34.5375 -97.3011 344° North 390 449 15,800 -2,000 Descending Fort Worth Center
Sat 08:39:30 PM 34.6347 -97.3339 344° North 367 422 13,800 -2,133 Descending Fort Worth Center
Sat 08:39:58 PM 34.6872 -97.3511 345° North 340 391 12,600 -1,869 Descending Fort Worth Center
Sat 08:40:31 PM 34.7244 -97.3656 342° North 338 389 11,900 -1,672 Descending Fort Worth Center
Sat 08:40:59 PM 34.7728 -97.3797 346° North 314 361 10,900 -871 Descending Fort Worth Center
Sat 08:41:33 PM 34.8075 -97.3942 341° North 314 361 11,000 100 Climbing Fort Worth Center
Sat 08:41:59 PM 34.8522 -97.4094 344° North 293 337 11,000  Level Fort Worth Center
Sat 08:42:34 PM 34.8886 -97.4156 352° North 303 349 11,000 -98 Level Fort Worth Center
Sat 08:43:00 PM 34.9378 -97.4203 355° North 311 358 10,900  Descending Fort Worth Center
Sat 08:43:35 PM 34.9736 -97.4264 352° North 305 351 11,000  Climbing Fort Worth Center
Sat 08:44:01 PM 35.0211 -97.4314 355° North 303 349 10,900 -97 Descending Fort Worth Center
Sat 08:44:37 PM 35.0567 -97.4369 353° North 302 348 10,900 -885 Level Fort Worth Center
Sat 08:45:02 PM 35.1006 -97.4433 353° North 287 330 10,000 -1,574 Descending Fort Worth Center
Sat 08:45:38 PM 35.1486 -97.4472 356° North 286 329 9,300 -1,500 Descending Fort Worth Center
Sat 08:46:02 PM 35.1753 -97.4508 354° North 267 307 8,500 -1,839 Descending Fort Worth Center
Sat 08:46:40 PM 35.2267 -97.4606 351° North 268 308 7,400 -1,900 Descending Fort Worth Center
Sat 08:47:02 PM 35.2553 -97.4678 348° North 266 306 6,600 -1,574 Descending Fort Worth Center
Sat 08:47:41 PM 35.3003 -97.4806 347° North 270 311 5,800 -1,279 Descending Fort Worth Center
Sat 08:48:03 PM 35.3275 -97.4914 342° North 268 308 5,300 -968 Descending Fort Worth Center
Sat 08:48:43 PM 35.3697 -97.5028 348° North 260 299 4,800 -787 Descending Fort Worth Center
Sat 08:49:04 PM 35.3947 -97.5081 350° North 237 273 4,500 -885 Descending Fort Worth Center
Sat 08:49:44 PM 35.4361 -97.5142 353° North 225 259 3,900 -1,000 Descending Fort Worth Center
Sat 08:50:04 PM 35.4550 -97.5181 350° North 211 243 3,500 -774 Descending Fort Worth Center
Sat 08:50:46 PM 35.4675 -97.5531 294° West 211 243 3,100 -787 Descending Fort Worth Center
Sat 08:51:05 PM 35.4639 -97.5783 260° West 187 215 2,700 -1,082 Descending Fort Worth Center
Sat 08:51:47 PM 35.4389 -97.5894 200° South 148 170 2,000 -800 Descending Fort Worth Center
Sat 08:52:05 PM 35.4275 -97.5897 181° South 118 136 1,900 -689 Descending Fort Worth Center
Sat 08:52:48 PM 35.4022 -97.5897 180° South 132 152 1,300 -837 Descending Fort Worth Center

Login

Don't have an account? Register now (free) for customized features, flight alerts, and more!